KAFF/AFF METAR and TAF weather

Enter ICAO airport designator
Station Type Date Time Source
KAFF METAR 2021/09/23 14:58 UTC NOAA

KAFF 231458Z AUTO 36005KT 10SM CLR 17/M05 A3019 RMK AO2 SLP153 T01661046 50003


Station Type Date Time Source
KAFF Decoded METAR 2021/09/23 14:58 UTC NOAA

Air Force Academy, CO, United States (KAFF) 38-58N 104-49W 1999M
Sep 23, 2021 - 10:58 AM EDT / 2021.09.23 1458 UTC
Wind: from the N (360 degrees) at 6 MPH (5 KT):0
Visibility: 10 mile(s):0
Sky conditions: clear
Temperature: 61.9 F (16.6 C)
Dew Point: 23.7 F (-4.6 C)
Relative Humidity: 23%
Pressure (altimeter): 30.19 in. Hg (1022 hPa)
Pressure tendency: 0.01 inches (0.3 hPa) higher than three hours ago
ob: KAFF 231458Z AUTO 36005KT 10SM CLR 17/M05 A3019 RMK AO2 SLP153 T01661046 50003
cycle: 15

Station Type Date Time Source
KAFF TAF 2021/09/23 11:06 UTC NOAA

TAF TAF KAFF 231100Z 2311/2417 35009KT 9999 SKC QNH3017INS
BECMG 2315/2316 04009KT 9999 SKC QNH3010INS WND 330V150
BECMG 2318/2319 09010G15KT 9999 SKC QNH3009INS WND 040V150
BECMG 2321/2322 15012G18KT 9999 SCT100 QNH3007INS
BECMG 2400/2401 35010G18KT 9999 BKN120 QNH3015INS SHRA OMTNS TIL 2406 TX26/2322Z TN02/2312Z

Example: see airport list